sensor_id;sensor_type;location;lat;lon;timestamp;P1;durP1;ratioP1;P2;durP2;ratioP2
35648;SDS011;21768;48.562;13.414;2023-04-03T00:01:00;2.10;;;1.42;;
35648;SDS011;21768;48.562;13.414;2023-04-03T00:03:27;2.85;;;1.75;;
35648;SDS011;21768;48.562;13.414;2023-04-03T00:05:53;3.22;;;1.60;;
35648;SDS011;21768;48.562;13.414;2023-04-03T00:08:18;5.07;;;2.00;;
35648;SDS011;21768;48.562;13.414;2023-04-03T00:10:44;2.33;;;1.50;;
35648;SDS011;21768;48.562;13.414;2023-04-03T00:13:10;3.25;;;1.58;;
35648;SDS011;21768;48.562;13.414;2023-04-03T00:15:36;2.97;;;1.73;;
35648;SDS011;21768;48.562;13.414;2023-04-03T00:18:02;1.95;;;1.50;;
35648;SDS011;21768;48.562;13.414;2023-04-03T00:20:28;3.00;;;1.52;;
35648;SDS011;21768;48.562;13.414;2023-04-03T00:22:54;2.53;;;1.55;;
35648;SDS011;21768;48.562;13.414;2023-04-03T00:25:20;4.30;;;1.70;;
35648;SDS011;21768;48.562;13.414;2023-04-03T00:27:46;2.20;;;1.42;;
35648;SDS011;21768;48.562;13.414;2023-04-03T00:30:13;4.78;;;1.73;;
35648;SDS011;21768;48.562;13.414;2023-04-03T00:32:40;3.05;;;1.80;;
35648;SDS011;21768;48.562;13.414;2023-04-03T00:35:05;3.00;;;1.67;;
35648;SDS011;21768;48.562;13.414;2023-04-03T00:37:31;3.90;;;2.03;;
35648;SDS011;21768;48.562;13.414;2023-04-03T00:39:57;4.07;;;1.70;;
35648;SDS011;21768;48.562;13.414;2023-04-03T00:42:23;3.20;;;1.92;;
35648;SDS011;21768;48.562;13.414;2023-04-03T00:47:18;2.58;;;1.52;;
35648;SDS011;21768;48.562;13.414;2023-04-03T00:49:45;3.50;;;1.67;;
35648;SDS011;21768;48.562;13.414;2023-04-03T00:52:15;2.85;;;1.80;;
35648;SDS011;21768;48.562;13.414;2023-04-03T00:54:43;4.18;;;1.80;;
35648;SDS011;21768;48.562;13.414;2023-04-03T00:57:11;4.05;;;2.22;;
35648;SDS011;21768;48.562;13.414;2023-04-03T00:59:49;7.57;;;2.10;;
35648;SDS011;21768;48.562;13.414;2023-04-03T01:02:18;5.00;;;2.08;;
35648;SDS011;21768;48.562;13.414;2023-04-03T01:04:44;4.05;;;2.20;;
35648;SDS011;21768;48.562;13.414;2023-04-03T01:07:12;7.57;;;2.45;;
35648;SDS011;21768;48.562;13.414;2023-04-03T01:09:42;3.90;;;1.92;;
35648;SDS011;21768;48.562;13.414;2023-04-03T01:14:43;4.00;;;2.10;;
35648;SDS011;21768;48.562;13.414;2023-04-03T01:18:11;6.13;;;2.00;;
35648;SDS011;21768;48.562;13.414;2023-04-03T01:25:32;3.53;;;1.90;;
35648;SDS011;21768;48.562;13.414;2023-04-03T01:27:59;3.03;;;2.03;;
35648;SDS011;21768;48.562;13.414;2023-04-03T01:30:28;5.55;;;2.10;;
35648;SDS011;21768;48.562;13.414;2023-04-03T01:32:58;4.13;;;2.00;;
35648;SDS011;21768;48.562;13.414;2023-04-03T01:35:24;3.42;;;2.03;;
35648;SDS011;21768;48.562;13.414;2023-04-03T01:37:50;3.03;;;1.67;;
35648;SDS011;21768;48.562;13.414;2023-04-03T01:40:16;3.40;;;2.05;;
35648;SDS011;21768;48.562;13.414;2023-04-03T01:42:41;2.72;;;1.77;;
35648;SDS011;21768;48.562;13.414;2023-04-03T01:45:07;4.65;;;2.03;;
35648;SDS011;21768;48.562;13.414;2023-04-03T01:47:33;3.33;;;1.80;;
35648;SDS011;21768;48.562;13.414;2023-04-03T01:49:59;2.80;;;1.92;;
35648;SDS011;21768;48.562;13.414;2023-04-03T01:52:24;4.40;;;1.58;;
35648;SDS011;21768;48.562;13.414;2023-04-03T01:54:50;3.50;;;1.70;;
35648;SDS011;21768;48.562;13.414;2023-04-03T01:57:16;3.45;;;1.90;;
35648;SDS011;21768;48.562;13.414;2023-04-03T01:59:42;3.53;;;1.77;;
35648;SDS011;21768;48.562;13.414;2023-04-03T02:02:07;4.00;;;2.03;;
35648;SDS011;21768;48.562;13.414;2023-04-03T02:04:33;4.20;;;1.80;;
35648;SDS011;21768;48.562;13.414;2023-04-03T02:07:00;3.55;;;1.90;;
35648;SDS011;21768;48.562;13.414;2023-04-03T02:09:26;2.47;;;1.83;;
35648;SDS011;21768;48.562;13.414;2023-04-03T02:11:52;2.85;;;1.90;;
35648;SDS011;21768;48.562;13.414;2023-04-03T02:14:18;4.97;;;2.20;;
35648;SDS011;21768;48.562;13.414;2023-04-03T02:16:43;3.88;;;2.22;;
35648;SDS011;21768;48.562;13.414;2023-04-03T02:19:09;5.72;;;2.47;;
35648;SDS011;21768;48.562;13.414;2023-04-03T02:21:35;3.67;;;2.10;;
35648;SDS011;21768;48.562;13.414;2023-04-03T02:24:00;4.95;;;2.28;;
35648;SDS011;21768;48.562;13.414;2023-04-03T02:26:26;3.10;;;1.77;;
35648;SDS011;21768;48.562;13.414;2023-04-03T02:28:51;3.38;;;1.92;;
35648;SDS011;21768;48.562;13.414;2023-04-03T02:31:17;3.65;;;2.20;;
35648;SDS011;21768;48.562;13.414;2023-04-03T02:33:43;4.43;;;2.15;;
35648;SDS011;21768;48.562;13.414;2023-04-03T02:36:09;4.05;;;2.30;;
35648;SDS011;21768;48.562;13.414;2023-04-03T02:38:35;3.20;;;1.90;;
35648;SDS011;21768;48.562;13.414;2023-04-03T02:41:01;3.72;;;1.90;;
35648;SDS011;21768;48.562;13.414;2023-04-03T02:43:32;3.15;;;2.20;;
35648;SDS011;21768;48.562;13.414;2023-04-03T02:45:58;6.38;;;2.42;;
35648;SDS011;21768;48.562;13.414;2023-04-03T02:48:24;3.13;;;2.13;;
35648;SDS011;21768;48.562;13.414;2023-04-03T02:50:50;3.22;;;1.90;;
35648;SDS011;21768;48.562;13.414;2023-04-03T02:53:16;3.30;;;2.10;;
35648;SDS011;21768;48.562;13.414;2023-04-03T02:55:43;4.72;;;2.10;;
35648;SDS011;21768;48.562;13.414;2023-04-03T02:58:09;3.60;;;2.17;;
35648;SDS011;21768;48.562;13.414;2023-04-03T03:00:35;5.68;;;2.33;;
35648;SDS011;21768;48.562;13.414;2023-04-03T03:03:00;4.45;;;2.60;;
35648;SDS011;21768;48.562;13.414;2023-04-03T03:05:26;3.72;;;2.22;;
35648;SDS011;21768;48.562;13.414;2023-04-03T03:07:53;4.15;;;2.35;;
35648;SDS011;21768;48.562;13.414;2023-04-03T03:10:19;3.08;;;2.40;;
35648;SDS011;21768;48.562;13.414;2023-04-03T03:12:45;4.97;;;2.15;;
35648;SDS011;21768;48.562;13.414;2023-04-03T03:15:12;4.85;;;2.33;;
35648;SDS011;21768;48.562;13.414;2023-04-03T03:17:37;3.50;;;2.30;;
35648;SDS011;21768;48.562;13.414;2023-04-03T03:20:04;6.07;;;2.30;;
35648;SDS011;21768;48.562;13.414;2023-04-03T03:22:31;4.00;;;2.13;;
35648;SDS011;21768;48.562;13.414;2023-04-03T03:24:57;5.50;;;3.30;;
35648;SDS011;21768;48.562;13.414;2023-04-03T03:27:23;6.63;;;2.20;;
35648;SDS011;21768;48.562;13.414;2023-04-03T03:29:49;6.47;;;2.30;;
35648;SDS011;21768;48.562;13.414;2023-04-03T03:32:15;3.13;;;2.10;;
35648;SDS011;21768;48.562;13.414;2023-04-03T03:34:41;3.92;;;2.45;;
35648;SDS011;21768;48.562;13.414;2023-04-03T03:37:06;5.47;;;2.67;;
35648;SDS011;21768;48.562;13.414;2023-04-03T03:39:32;6.25;;;2.47;;
35648;SDS011;21768;48.562;13.414;2023-04-03T03:41:58;5.45;;;2.72;;
35648;SDS011;21768;48.562;13.414;2023-04-03T03:44:23;4.95;;;2.65;;
35648;SDS011;21768;48.562;13.414;2023-04-03T03:46:49;3.42;;;2.55;;
35648;SDS011;21768;48.562;13.414;2023-04-03T03:49:14;6.38;;;2.70;;
35648;SDS011;21768;48.562;13.414;2023-04-03T03:51:40;4.85;;;2.63;;
35648;SDS011;21768;48.562;13.414;2023-04-03T03:54:06;4.97;;;2.65;;
35648;SDS011;21768;48.562;13.414;2023-04-03T03:56:33;5.35;;;2.95;;
35648;SDS011;21768;48.562;13.414;2023-04-03T03:58:59;5.03;;;2.78;;
35648;SDS011;21768;48.562;13.414;2023-04-03T04:01:25;6.10;;;2.97;;
35648;SDS011;21768;48.562;13.414;2023-04-03T04:03:51;5.53;;;2.78;;
35648;SDS011;21768;48.562;13.414;2023-04-03T04:06:19;6.82;;;2.42;;
35648;SDS011;21768;48.562;13.414;2023-04-03T04:08:44;7.30;;;2.90;;
35648;SDS011;21768;48.562;13.414;2023-04-03T04:11:10;8.70;;;2.65;;
35648;SDS011;21768;48.562;13.414;2023-04-03T04:13:36;7.32;;;2.60;;
35648;SDS011;21768;48.562;13.414;2023-04-03T04:16:01;6.53;;;3.05;;
35648;SDS011;21768;48.562;13.414;2023-04-03T04:18:27;8.23;;;3.15;;
35648;SDS011;21768;48.562;13.414;2023-04-03T04:20:53;7.25;;;3.30;;
35648;SDS011;21768;48.562;13.414;2023-04-03T04:23:18;6.15;;;3.55;;
35648;SDS011;21768;48.562;13.414;2023-04-03T04:25:45;5.38;;;2.88;;
35648;SDS011;21768;48.562;13.414;2023-04-03T04:28:11;9.32;;;3.13;;
35648;SDS011;21768;48.562;13.414;2023-04-03T04:30:37;5.28;;;2.78;;
35648;SDS011;21768;48.562;13.414;2023-04-03T04:33:03;9.82;;;4.30;;
35648;SDS011;21768;48.562;13.414;2023-04-03T04:35:28;7.47;;;3.20;;
35648;SDS011;21768;48.562;13.414;2023-04-03T04:37:54;4.82;;;3.10;;
35648;SDS011;21768;48.562;13.414;2023-04-03T04:40:20;7.57;;;3.33;;
35648;SDS011;21768;48.562;13.414;2023-04-03T04:42:46;8.98;;;3.85;;
35648;SDS011;21768;48.562;13.414;2023-04-03T04:45:12;7.78;;;3.20;;
35648;SDS011;21768;48.562;13.414;2023-04-03T04:47:37;6.50;;;3.20;;
35648;SDS011;21768;48.562;13.414;2023-04-03T04:50:03;4.75;;;2.88;;
35648;SDS011;21768;48.562;13.414;2023-04-03T04:52:29;7.43;;;3.00;;
35648;SDS011;21768;48.562;13.414;2023-04-03T04:54:55;5.07;;;2.95;;
35648;SDS011;21768;48.562;13.414;2023-04-03T04:57:21;5.80;;;3.30;;
35648;SDS011;21768;48.562;13.414;2023-04-03T04:59:46;6.55;;;3.20;;
35648;SDS011;21768;48.562;13.414;2023-04-03T05:02:12;5.50;;;3.15;;
35648;SDS011;21768;48.562;13.414;2023-04-03T05:04:38;5.10;;;3.00;;
35648;SDS011;21768;48.562;13.414;2023-04-03T05:07:06;5.50;;;3.33;;
35648;SDS011;21768;48.562;13.414;2023-04-03T05:09:31;7.43;;;3.22;;
35648;SDS011;21768;48.562;13.414;2023-04-03T05:11:57;11.55;;;3.58;;
35648;SDS011;21768;48.562;13.414;2023-04-03T05:14:23;5.57;;;3.17;;
35648;SDS011;21768;48.562;13.414;2023-04-03T05:16:48;7.43;;;3.30;;
35648;SDS011;21768;48.562;13.414;2023-04-03T05:19:18;12.93;;;5.30;;
35648;SDS011;21768;48.562;13.414;2023-04-03T05:21:47;16.08;;;7.85;;
35648;SDS011;21768;48.562;13.414;2023-04-03T05:24:15;16.77;;;11.23;;
35648;SDS011;21768;48.562;13.414;2023-04-03T05:26:41;10.23;;;5.57;;
35648;SDS011;21768;48.562;13.414;2023-04-03T05:29:08;7.13;;;4.13;;
35648;SDS011;21768;48.562;13.414;2023-04-03T05:31:33;6.15;;;3.58;;
35648;SDS011;21768;48.562;13.414;2023-04-03T05:33:59;6.65;;;3.25;;
35648;SDS011;21768;48.562;13.414;2023-04-03T05:36:25;8.38;;;3.30;;
35648;SDS011;21768;48.562;13.414;2023-04-03T05:38:52;7.07;;;3.67;;
35648;SDS011;21768;48.562;13.414;2023-04-03T05:41:21;6.05;;;3.10;;
35648;SDS011;21768;48.562;13.414;2023-04-03T05:43:47;8.63;;;3.13;;
35648;SDS011;21768;48.562;13.414;2023-04-03T05:46:14;6.88;;;3.33;;
35648;SDS011;21768;48.562;13.414;2023-04-03T05:48:41;5.13;;;3.10;;
35648;SDS011;21768;48.562;13.414;2023-04-03T05:51:09;10.35;;;3.38;;
35648;SDS011;21768;48.562;13.414;2023-04-03T05:53:41;8.23;;;3.13;;
35648;SDS011;21768;48.562;13.414;2023-04-03T05:56:06;9.95;;;3.38;;
35648;SDS011;21768;48.562;13.414;2023-04-03T05:58:32;5.75;;;3.20;;
35648;SDS011;21768;48.562;13.414;2023-04-03T06:00:57;4.13;;;2.80;;
35648;SDS011;21768;48.562;13.414;2023-04-03T06:03:23;8.55;;;3.65;;
35648;SDS011;21768;48.562;13.414;2023-04-03T06:05:49;4.80;;;3.35;;
35648;SDS011;21768;48.562;13.414;2023-04-03T06:08:15;8.85;;;3.55;;
35648;SDS011;21768;48.562;13.414;2023-04-03T06:10:40;6.82;;;3.00;;
35648;SDS011;21768;48.562;13.414;2023-04-03T06:13:06;6.90;;;3.47;;
35648;SDS011;21768;48.562;13.414;2023-04-03T06:15:32;5.05;;;3.00;;
35648;SDS011;21768;48.562;13.414;2023-04-03T06:17:58;6.35;;;3.00;;
35648;SDS011;21768;48.562;13.414;2023-04-03T06:20:24;8.63;;;3.03;;
35648;SDS011;21768;48.562;13.414;2023-04-03T06:22:49;6.82;;;3.00;;
35648;SDS011;21768;48.562;13.414;2023-04-03T06:25:15;6.25;;;3.05;;
35648;SDS011;21768;48.562;13.414;2023-04-03T06:27:42;6.85;;;3.38;;
35648;SDS011;21768;48.562;13.414;2023-04-03T06:30:08;6.18;;;3.10;;
35648;SDS011;21768;48.562;13.414;2023-04-03T06:32:34;4.53;;;2.75;;
35648;SDS011;21768;48.562;13.414;2023-04-03T06:34:59;7.45;;;3.10;;
35648;SDS011;21768;48.562;13.414;2023-04-03T06:37:25;6.80;;;2.92;;
35648;SDS011;21768;48.562;13.414;2023-04-03T06:39:51;11.73;;;4.55;;
35648;SDS011;21768;48.562;13.414;2023-04-03T06:42:17;6.32;;;2.70;;
35648;SDS011;21768;48.562;13.414;2023-04-03T06:44:44;5.15;;;2.55;;
35648;SDS011;21768;48.562;13.414;2023-04-03T06:47:13;9.18;;;2.85;;
35648;SDS011;21768;48.562;13.414;2023-04-03T06:49:40;4.80;;;2.75;;
35648;SDS011;21768;48.562;13.414;2023-04-03T06:52:06;4.63;;;2.65;;
35648;SDS011;21768;48.562;13.414;2023-04-03T06:54:32;7.70;;;2.75;;
35648;SDS011;21768;48.562;13.414;2023-04-03T06:56:58;4.00;;;2.28;;
35648;SDS011;21768;48.562;13.414;2023-04-03T06:59:24;9.13;;;3.08;;
35648;SDS011;21768;48.562;13.414;2023-04-03T07:01:50;7.78;;;3.17;;
35648;SDS011;21768;48.562;13.414;2023-04-03T07:04:16;7.75;;;4.18;;
35648;SDS011;21768;48.562;13.414;2023-04-03T07:06:42;6.15;;;2.78;;
35648;SDS011;21768;48.562;13.414;2023-04-03T07:09:08;7.22;;;3.22;;
35648;SDS011;21768;48.562;13.414;2023-04-03T07:11:35;7.97;;;3.28;;
35648;SDS011;21768;48.562;13.414;2023-04-03T07:14:01;6.05;;;2.85;;
35648;SDS011;21768;48.562;13.414;2023-04-03T07:16:27;5.95;;;2.70;;
35648;SDS011;21768;48.562;13.414;2023-04-03T07:18:53;5.95;;;2.50;;
35648;SDS011;21768;48.562;13.414;2023-04-03T07:21:18;6.35;;;2.70;;
35648;SDS011;21768;48.562;13.414;2023-04-03T07:23:44;7.68;;;2.80;;
35648;SDS011;21768;48.562;13.414;2023-04-03T07:26:10;6.03;;;3.20;;
35648;SDS011;21768;48.562;13.414;2023-04-03T07:28:36;6.75;;;3.58;;
35648;SDS011;21768;48.562;13.414;2023-04-03T07:31:03;6.00;;;3.10;;
35648;SDS011;21768;48.562;13.414;2023-04-03T07:33:31;7.07;;;2.33;;
35648;SDS011;21768;48.562;13.414;2023-04-03T07:35:57;6.47;;;2.80;;
35648;SDS011;21768;48.562;13.414;2023-04-03T07:38:24;5.35;;;2.80;;
35648;SDS011;21768;48.562;13.414;2023-04-03T07:40:50;8.25;;;3.00;;
35648;SDS011;21768;48.562;13.414;2023-04-03T07:43:17;7.22;;;3.00;;
35648;SDS011;21768;48.562;13.414;2023-04-03T07:45:45;7.63;;;2.70;;
35648;SDS011;21768;48.562;13.414;2023-04-03T07:48:12;7.07;;;2.40;;
35648;SDS011;21768;48.562;13.414;2023-04-03T07:50:41;6.68;;;2.67;;
35648;SDS011;21768;48.562;13.414;2023-04-03T07:53:07;4.88;;;2.50;;
35648;SDS011;21768;48.562;13.414;2023-04-03T07:55:33;6.07;;;2.70;;
35648;SDS011;21768;48.562;13.414;2023-04-03T07:57:59;5.50;;;2.63;;
35648;SDS011;21768;48.562;13.414;2023-04-03T08:00:24;7.82;;;2.95;;
35648;SDS011;21768;48.562;13.414;2023-04-03T08:02:50;6.30;;;2.50;;
35648;SDS011;21768;48.562;13.414;2023-04-03T08:05:19;7.28;;;2.25;;
35648;SDS011;21768;48.562;13.414;2023-04-03T08:07:46;4.95;;;2.30;;
35648;SDS011;21768;48.562;13.414;2023-04-03T08:10:12;3.90;;;1.83;;
35648;SDS011;21768;48.562;13.414;2023-04-03T08:12:39;4.82;;;2.03;;
35648;SDS011;21768;48.562;13.414;2023-04-03T08:15:05;7.13;;;1.80;;
35648;SDS011;21768;48.562;13.414;2023-04-03T08:17:32;8.50;;;2.20;;
35648;SDS011;21768;48.562;13.414;2023-04-03T08:19:58;4.53;;;1.80;;
35648;SDS011;21768;48.562;13.414;2023-04-03T08:22:24;5.88;;;2.30;;
35648;SDS011;21768;48.562;13.414;2023-04-03T08:24:51;6.60;;;2.08;;
35648;SDS011;21768;48.562;13.414;2023-04-03T08:27:17;6.03;;;1.63;;
35648;SDS011;21768;48.562;13.414;2023-04-03T08:29:42;4.50;;;1.80;;
35648;SDS011;21768;48.562;13.414;2023-04-03T08:32:08;6.38;;;1.55;;
35648;SDS011;21768;48.562;13.414;2023-04-03T08:34:33;4.53;;;2.03;;
35648;SDS011;21768;48.562;13.414;2023-04-03T08:37:02;3.50;;;1.65;;
35648;SDS011;21768;48.562;13.414;2023-04-03T08:39:28;3.13;;;1.48;;
35648;SDS011;21768;48.562;13.414;2023-04-03T08:41:55;4.13;;;1.40;;
35648;SDS011;21768;48.562;13.414;2023-04-03T08:44:25;3.42;;;1.30;;
35648;SDS011;21768;48.562;13.414;2023-04-03T08:47:23;8.23;;;1.90;;
35648;SDS011;21768;48.562;13.414;2023-04-03T08:50:02;4.78;;;2.05;;
35648;SDS011;21768;48.562;13.414;2023-04-03T08:52:35;7.28;;;2.40;;
35648;SDS011;21768;48.562;13.414;2023-04-03T08:58:03;4.22;;;1.85;;
35648;SDS011;21768;48.562;13.414;2023-04-03T09:03:40;3.55;;;1.45;;
35648;SDS011;21768;48.562;13.414;2023-04-03T09:06:07;4.32;;;1.50;;
35648;SDS011;21768;48.562;13.414;2023-04-03T09:12:00;3.70;;;1.40;;
35648;SDS011;21768;48.562;13.414;2023-04-03T09:14:52;4.18;;;1.27;;
35648;SDS011;21768;48.562;13.414;2023-04-03T09:23:04;2.90;;;1.30;;
35648;SDS011;21768;48.562;13.414;2023-04-03T09:25:38;1.95;;;1.02;;
35648;SDS011;21768;48.562;13.414;2023-04-03T09:28:04;2.90;;;1.38;;
35648;SDS011;21768;48.562;13.414;2023-04-03T09:30:34;3.38;;;1.40;;
35648;SDS011;21768;48.562;13.414;2023-04-03T09:33:00;4.07;;;1.65;;
35648;SDS011;21768;48.562;13.414;2023-04-03T09:35:30;5.40;;;1.58;;
35648;SDS011;21768;48.562;13.414;2023-04-03T09:40:38;2.58;;;1.38;;
35648;SDS011;21768;48.562;13.414;2023-04-03T09:45:51;3.42;;;1.27;;
35648;SDS011;21768;48.562;13.414;2023-04-03T09:48:18;2.50;;;1.30;;
35648;SDS011;21768;48.562;13.414;2023-04-03T09:56:02;1.65;;;1.27;;
35648;SDS011;21768;48.562;13.414;2023-04-03T10:06:31;3.53;;;1.38;;
35648;SDS011;21768;48.562;13.414;2023-04-03T10:08:59;3.03;;;1.55;;
35648;SDS011;21768;48.562;13.414;2023-04-03T10:11:28;4.03;;;1.55;;
35648;SDS011;21768;48.562;13.414;2023-04-03T10:14:00;5.95;;;3.10;;
35648;SDS011;21768;48.562;13.414;2023-04-03T10:19:15;2.17;;;1.27;;
35648;SDS011;21768;48.562;13.414;2023-04-03T10:21:46;4.47;;;1.50;;
35648;SDS011;21768;48.562;13.414;2023-04-03T10:27:06;3.58;;;1.40;;
35648;SDS011;21768;48.562;13.414;2023-04-03T10:35:02;3.90;;;1.80;;
35648;SDS011;21768;48.562;13.414;2023-04-03T10:38:20;3.25;;;1.70;;
35648;SDS011;21768;48.562;13.414;2023-04-03T10:46:35;6.45;;;1.58;;
35648;SDS011;21768;48.562;13.414;2023-04-03T10:52:06;8.60;;;1.50;;
35648;SDS011;21768;48.562;13.414;2023-04-03T10:57:27;4.97;;;1.50;;
35648;SDS011;21768;48.562;13.414;2023-04-03T11:00:04;3.83;;;1.60;;
35648;SDS011;21768;48.562;13.414;2023-04-03T11:02:42;2.75;;;1.58;;
35648;SDS011;21768;48.562;13.414;2023-04-03T11:05:23;3.42;;;2.28;;
35648;SDS011;21768;48.562;13.414;2023-04-03T11:07:57;17.52;;;8.32;;
35648;SDS011;21768;48.562;13.414;2023-04-03T11:13:26;6.63;;;2.47;;
35648;SDS011;21768;48.562;13.414;2023-04-03T11:16:05;3.85;;;2.47;;
35648;SDS011;21768;48.562;13.414;2023-04-03T11:18:35;4.55;;;2.03;;
35648;SDS011;21768;48.562;13.414;2023-04-03T11:21:09;3.25;;;1.30;;
35648;SDS011;21768;48.562;13.414;2023-04-03T11:23:41;4.65;;;1.50;;
35648;SDS011;21768;48.562;13.414;2023-04-03T11:26:29;2.65;;;1.40;;
35648;SDS011;21768;48.562;13.414;2023-04-03T11:29:01;4.93;;;1.75;;
35648;SDS011;21768;48.562;13.414;2023-04-03T11:36:50;5.93;;;1.63;;
35648;SDS011;21768;48.562;13.414;2023-04-03T11:39:27;3.50;;;1.38;;
35648;SDS011;21768;48.562;13.414;2023-04-03T11:41:55;5.05;;;1.70;;
35648;SDS011;21768;48.562;13.414;2023-04-03T11:44:40;4.22;;;1.40;;
35648;SDS011;21768;48.562;13.414;2023-04-03T11:47:07;3.92;;;1.45;;
35648;SDS011;21768;48.562;13.414;2023-04-03T12:03:29;6.10;;;1.60;;
35648;SDS011;21768;48.562;13.414;2023-04-03T12:16:04;3.45;;;1.55;;
35648;SDS011;21768;48.562;13.414;2023-04-03T12:18:42;3.65;;;1.63;;
35648;SDS011;21768;48.562;13.414;2023-04-03T12:21:21;5.30;;;1.77;;
35648;SDS011;21768;48.562;13.414;2023-04-03T12:23:59;4.20;;;1.65;;
35648;SDS011;21768;48.562;13.414;2023-04-03T12:26:36;3.10;;;1.60;;
35648;SDS011;21768;48.562;13.414;2023-04-03T12:29:13;3.55;;;1.70;;
35648;SDS011;21768;48.562;13.414;2023-04-03T12:31:54;5.82;;;1.40;;
35648;SDS011;21768;48.562;13.414;2023-04-03T12:34:49;3.20;;;1.30;;
35648;SDS011;21768;48.562;13.414;2023-04-03T12:40:42;5.03;;;1.77;;
35648;SDS011;21768;48.562;13.414;2023-04-03T12:46:26;4.50;;;1.65;;
35648;SDS011;21768;48.562;13.414;2023-04-03T12:49:00;3.03;;;1.48;;
35648;SDS011;21768;48.562;13.414;2023-04-03T12:54:03;5.15;;;1.75;;
35648;SDS011;21768;48.562;13.414;2023-04-03T12:56:41;3.33;;;1.70;;
35648;SDS011;21768;48.562;13.414;2023-04-03T12:59:26;3.30;;;1.90;;
35648;SDS011;21768;48.562;13.414;2023-04-03T13:01:55;3.78;;;1.88;;
35648;SDS011;21768;48.562;13.414;2023-04-03T13:04:22;3.40;;;1.75;;
35648;SDS011;21768;48.562;13.414;2023-04-03T13:06:48;4.18;;;1.67;;
35648;SDS011;21768;48.562;13.414;2023-04-03T13:09:28;3.92;;;2.00;;
35648;SDS011;21768;48.562;13.414;2023-04-03T13:14:27;3.80;;;1.92;;
35648;SDS011;21768;48.562;13.414;2023-04-03T13:17:06;3.90;;;1.75;;
35648;SDS011;21768;48.562;13.414;2023-04-03T13:19:38;6.00;;;1.85;;
35648;SDS011;21768;48.562;13.414;2023-04-03T13:24:50;5.55;;;1.83;;
35648;SDS011;21768;48.562;13.414;2023-04-03T13:27:18;5.00;;;1.92;;
35648;SDS011;21768;48.562;13.414;2023-04-03T13:29:48;4.20;;;1.60;;
35648;SDS011;21768;48.562;13.414;2023-04-03T13:32:18;4.63;;;1.73;;
35648;SDS011;21768;48.562;13.414;2023-04-03T13:34:46;6.22;;;1.75;;
35648;SDS011;21768;48.562;13.414;2023-04-03T13:37:26;6.10;;;2.13;;
35648;SDS011;21768;48.562;13.414;2023-04-03T13:39:58;4.88;;;1.67;;
35648;SDS011;21768;48.562;13.414;2023-04-03T13:42:34;4.10;;;1.90;;
35648;SDS011;21768;48.562;13.414;2023-04-03T13:45:27;6.05;;;2.80;;
35648;SDS011;21768;48.562;13.414;2023-04-03T13:48:08;4.93;;;2.15;;
35648;SDS011;21768;48.562;13.414;2023-04-03T13:50:50;4.65;;;2.10;;
35648;SDS011;21768;48.562;13.414;2023-04-03T13:53:16;5.93;;;2.13;;
35648;SDS011;21768;48.562;13.414;2023-04-03T13:55:53;2.85;;;1.83;;
35648;SDS011;21768;48.562;13.414;2023-04-03T13:58:25;3.25;;;1.50;;
35648;SDS011;21768;48.562;13.414;2023-04-03T14:01:00;8.18;;;2.22;;
35648;SDS011;21768;48.562;13.414;2023-04-03T14:06:19;9.23;;;4.80;;
35648;SDS011;21768;48.562;13.414;2023-04-03T14:08:45;3.80;;;2.15;;
35648;SDS011;21768;48.562;13.414;2023-04-03T14:13:46;5.50;;;2.05;;
35648;SDS011;21768;48.562;13.414;2023-04-03T14:16:13;6.38;;;1.80;;
35648;SDS011;21768;48.562;13.414;2023-04-03T14:18:42;4.10;;;1.77;;
35648;SDS011;21768;48.562;13.414;2023-04-03T14:21:10;4.55;;;2.05;;
35648;SDS011;21768;48.562;13.414;2023-04-03T14:23:37;6.28;;;1.83;;
35648;SDS011;21768;48.562;13.414;2023-04-03T14:26:04;3.97;;;1.73;;
35648;SDS011;21768;48.562;13.414;2023-04-03T14:28:35;3.75;;;1.90;;
35648;SDS011;21768;48.562;13.414;2023-04-03T14:31:01;7.20;;;2.47;;
35648;SDS011;21768;48.562;13.414;2023-04-03T14:33:27;2.20;;;1.60;;
35648;SDS011;21768;48.562;13.414;2023-04-03T14:35:54;5.28;;;1.80;;
35648;SDS011;21768;48.562;13.414;2023-04-03T14:38:24;4.78;;;2.13;;
35648;SDS011;21768;48.562;13.414;2023-04-03T14:40:52;4.45;;;1.88;;
35648;SDS011;21768;48.562;13.414;2023-04-03T14:43:18;2.55;;;1.73;;
35648;SDS011;21768;48.562;13.414;2023-04-03T14:45:45;6.72;;;2.08;;
35648;SDS011;21768;48.562;13.414;2023-04-03T14:48:21;2.35;;;1.58;;
35648;SDS011;21768;48.562;13.414;2023-04-03T14:50:50;3.97;;;1.75;;
35648;SDS011;21768;48.562;13.414;2023-04-03T14:53:17;7.40;;;2.22;;
35648;SDS011;21768;48.562;13.414;2023-04-03T14:55:48;5.78;;;2.40;;
35648;SDS011;21768;48.562;13.414;2023-04-03T14:58:15;6.53;;;2.60;;
35648;SDS011;21768;48.562;13.414;2023-04-03T15:00:42;3.95;;;2.10;;
35648;SDS011;21768;48.562;13.414;2023-04-03T15:03:16;3.45;;;1.65;;
35648;SDS011;21768;48.562;13.414;2023-04-03T15:05:43;2.97;;;1.60;;
35648;SDS011;21768;48.562;13.414;2023-04-03T15:08:28;3.72;;;1.95;;
35648;SDS011;21768;48.562;13.414;2023-04-03T15:10:55;4.13;;;2.17;;
35648;SDS011;21768;48.562;13.414;2023-04-03T15:13:21;4.15;;;2.00;;
35648;SDS011;21768;48.562;13.414;2023-04-03T15:15:48;4.30;;;1.80;;
35648;SDS011;21768;48.562;13.414;2023-04-03T15:18:17;3.13;;;2.08;;
35648;SDS011;21768;48.562;13.414;2023-04-03T15:20:44;6.05;;;2.03;;
35648;SDS011;21768;48.562;13.414;2023-04-03T15:23:12;4.38;;;1.80;;
35648;SDS011;21768;48.562;13.414;2023-04-03T15:25:38;5.65;;;2.05;;
35648;SDS011;21768;48.562;13.414;2023-04-03T15:28:04;5.15;;;2.03;;
35648;SDS011;21768;48.562;13.414;2023-04-03T15:30:31;5.07;;;2.30;;
35648;SDS011;21768;48.562;13.414;2023-04-03T15:32:56;3.88;;;2.05;;
35648;SDS011;21768;48.562;13.414;2023-04-03T15:35:22;14.18;;;7.25;;
35648;SDS011;21768;48.562;13.414;2023-04-03T15:37:47;7.15;;;2.55;;
35648;SDS011;21768;48.562;13.414;2023-04-03T15:40:13;4.30;;;1.90;;
35648;SDS011;21768;48.562;13.414;2023-04-03T15:42:39;7.00;;;2.15;;
35648;SDS011;21768;48.562;13.414;2023-04-03T15:45:05;5.70;;;2.20;;
35648;SDS011;21768;48.562;13.414;2023-04-03T15:47:31;4.63;;;2.17;;
35648;SDS011;21768;48.562;13.414;2023-04-03T15:49:57;6.22;;;1.90;;
35648;SDS011;21768;48.562;13.414;2023-04-03T15:52:23;3.70;;;2.15;;
35648;SDS011;21768;48.562;13.414;2023-04-03T15:54:48;9.25;;;2.72;;
35648;SDS011;21768;48.562;13.414;2023-04-03T15:57:14;5.50;;;2.03;;
35648;SDS011;21768;48.562;13.414;2023-04-03T15:59:39;5.30;;;2.25;;
35648;SDS011;21768;48.562;13.414;2023-04-03T16:02:06;4.35;;;1.92;;
35648;SDS011;21768;48.562;13.414;2023-04-03T16:04:35;5.50;;;2.42;;
35648;SDS011;21768;48.562;13.414;2023-04-03T16:07:01;4.07;;;2.70;;
35648;SDS011;21768;48.562;13.414;2023-04-03T16:09:27;5.22;;;2.28;;
35648;SDS011;21768;48.562;13.414;2023-04-03T16:11:52;6.65;;;2.85;;
35648;SDS011;21768;48.562;13.414;2023-04-03T16:14:18;6.47;;;2.67;;
35648;SDS011;21768;48.562;13.414;2023-04-03T16:16:43;4.75;;;2.38;;
35648;SDS011;21768;48.562;13.414;2023-04-03T16:19:09;6.35;;;2.47;;
35648;SDS011;21768;48.562;13.414;2023-04-03T16:21:35;7.43;;;2.47;;
35648;SDS011;21768;48.562;13.414;2023-04-03T16:24:00;9.75;;;2.55;;
35648;SDS011;21768;48.562;13.414;2023-04-03T16:26:26;5.03;;;2.40;;
35648;SDS011;21768;48.562;13.414;2023-04-03T16:28:52;4.20;;;2.00;;
35648;SDS011;21768;48.562;13.414;2023-04-03T16:31:18;4.85;;;2.00;;
35648;SDS011;21768;48.562;13.414;2023-04-03T16:33:44;5.38;;;2.20;;
35648;SDS011;21768;48.562;13.414;2023-04-03T16:36:10;5.15;;;2.40;;
35648;SDS011;21768;48.562;13.414;2023-04-03T16:38:35;2.50;;;1.70;;